Time;durP1;ratioP1;P1;durP2;ratioP2;P2;SDS_P1;SDS_P2;PMS_P1;PMS_P2;Temp;Humidity;BMP_temperature;BMP_pressure;BME280_temperature;BME280_humidity;BME280_pressure;Samples;Min_cycle;Max_cycle;Signal;HPM_P1;HPM_P2
2022/08/06 00:01:38;;;;;;;2.92;0.60;;;23.50;56.40;;;;;;6258936;28;20052;-79
2022/08/06 00:04:40;;;;;;;1.23;0.60;;;23.40;56.50;;;;;;6282692;28;20569;-78
2022/08/06 00:07:43;;;;;;;1.42;0.60;;;23.40;56.60;;;;;;6276434;28;20044;-79
2022/08/06 00:10:45;;;;;;;4.50;1.02;;;23.40;56.60;;;;;;6278124;28;20053;-79
2022/08/06 00:13:47;;;;;;;1.95;0.25;;;23.40;56.10;;;;;;6278427;28;20045;-79
2022/08/06 00:16:48;;;;;;;3.22;0.50;;;23.30;56.40;;;;;;6279700;28;20048;-80
2022/08/06 00:19:50;;;;;;;2.22;0.77;;;23.30;56.40;;;;;;6279162;28;20526;-81
2022/08/06 00:22:53;;;;;;;1.30;0.43;;;23.20;56.50;;;;;;6277676;28;20056;-80
2022/08/06 00:25:55;;;;;;;1.65;0.65;;;23.20;56.50;;;;;;6280494;28;20044;-79
2022/08/06 00:28:57;;;;;;;3.15;0.40;;;23.10;56.60;;;;;;6278773;28;20186;-80
2022/08/06 00:31:59;;;;;;;2.15;0.82;;;23.10;57.00;;;;;;6279367;28;20612;-80
2022/08/06 00:35:01;;;;;;;1.77;0.63;;;23.00;57.00;;;;;;6279659;28;20049;-80
2022/08/06 00:38:04;;;;;;;3.22;0.70;;;23.00;57.00;;;;;;6278877;28;20151;-81
2022/08/06 00:41:06;;;;;;;2.80;0.80;;;23.00;57.30;;;;;;6279030;28;20051;-79
2022/08/06 00:44:08;;;;;;;2.55;0.70;;;23.10;57.00;;;;;;6279992;28;20638;-79
2022/08/06 00:47:10;;;;;;;0.80;0.60;;;23.10;57.00;;;;;;6279952;28;20040;-81
2022/08/06 00:50:11;;;;;;;3.55;1.15;;;23.10;56.90;;;;;;6279429;28;20136;-79
2022/08/06 00:53:14;;;;;;;1.17;0.55;;;23.10;57.10;;;;;;6278929;28;20395;-80
2022/08/06 00:56:16;;;;;;;3.40;0.40;;;23.10;57.10;;;;;;6280406;28;20051;-78
2022/08/06 00:59:18;;;;;;;2.50;0.40;;;23.10;56.90;;;;;;6280606;28;20056;-79
2022/08/06 01:02:20;;;;;;;5.63;1.20;;;23.10;56.60;;;;;;6279958;28;20041;-79
2022/08/06 01:05:21;;;;;;;2.10;0.52;;;23.10;56.90;;;;;;6279626;28;20048;-79
2022/08/06 01:08:25;;;;;;;1.60;0.50;;;23.10;56.70;;;;;;6279659;28;20507;-78
2022/08/06 01:11:26;;;;;;;3.17;0.75;;;23.00;56.70;;;;;;6280695;28;20051;-79
2022/08/06 01:14:28;;;;;;;4.10;0.77;;;23.00;56.60;;;;;;6286715;28;20055;-80
2022/08/06 01:17:37;;;;;;;3.80;0.95;;;23.00;56.80;;;;;;6283440;28;20292;-80
2022/08/06 01:21:03;;;;;;;1.25;0.38;;;23.00;56.70;;;;;;6282647;28;20466;-80
2022/08/06 01:24:39;;;;;;;0.93;0.55;;;23.00;56.40;;;;;;6282032;28;20044;-79
2022/08/06 01:27:50;;;;;;;2.45;0.40;;;22.90;56.40;;;;;;6280560;28;20048;-80
2022/08/06 01:30:58;;;;;;;0.80;0.40;;;22.90;56.30;;;;;;6280707;28;20060;-78
2022/08/06 01:34:04;;;;;;;1.15;0.43;;;22.90;56.40;;;;;;6279863;28;20411;-79
2022/08/06 01:37:14;;;;;;;3.42;0.52;;;22.80;56.30;;;;;;6280154;28;20052;-79
2022/08/06 01:40:21;;;;;;;1.67;0.30;;;22.70;56.30;;;;;;6279687;28;20072;-78
2022/08/06 01:43:27;;;;;;;2.40;0.60;;;22.70;56.50;;;;;;6280433;28;20045;-79
2022/08/06 01:46:29;;;;;;;4.40;0.93;;;22.70;56.60;;;;;;6279734;28;20426;-79
2022/08/06 01:49:33;;;;;;;1.38;0.38;;;22.80;56.60;;;;;;6280015;28;20045;-79
2022/08/06 01:52:38;;;;;;;3.25;0.40;;;22.80;56.50;;;;;;6280368;28;20055;-78
2022/08/06 01:55:45;;;;;;;1.92;0.80;;;22.70;56.50;;;;;;6281260;28;20049;-80
2022/08/06 01:58:52;;;;;;;1.40;0.57;;;22.60;56.80;;;;;;6281539;28;20055;-78
2022/08/06 02:01:56;;;;;;;2.70;0.85;;;22.60;57.10;;;;;;6280193;28;20045;-79
2022/08/06 02:05:01;;;;;;;3.95;1.77;;;22.60;57.10;;;;;;6280535;28;20053;-79
2022/08/06 02:08:06;;;;;;;0.80;0.40;;;22.50;57.10;;;;;;6280512;28;20049;-79
2022/08/06 02:11:09;;;;;;;4.43;0.80;;;22.40;57.50;;;;;;6281456;28;20059;-78
2022/08/06 02:14:15;;;;;;;3.17;0.70;;;22.30;57.60;;;;;;6281015;28;20048;-79
2022/08/06 02:17:18;;;;;;;5.68;0.82;;;22.20;58.00;;;;;;6278946;28;20399;-80
2022/08/06 02:20:25;;;;;;;4.13;0.50;;;22.10;58.30;;;;;;6278779;28;20055;-79
2022/08/06 02:23:29;;;;;;;2.17;0.60;;;22.00;58.80;;;;;;6283357;28;20140;-80
2022/08/06 02:26:33;;;;;;;1.88;0.68;;;21.90;59.30;;;;;;6285119;28;20522;-79
2022/08/06 02:29:37;;;;;;;1.40;0.77;;;21.70;59.60;;;;;;6284954;28;20053;-79
2022/08/06 02:32:39;;;;;;;3.08;0.70;;;21.50;60.50;;;;;;6285900;28;20499;-80
2022/08/06 02:35:46;;;;;;;6.63;2.80;;;21.30;61.10;;;;;;6284525;28;20049;-80
2022/08/06 02:38:54;;;;;;;1.77;0.73;;;21.20;61.40;;;;;;6285074;28;20639;-80
2022/08/06 02:42:02;;;;;;;2.30;0.63;;;21.20;61.80;;;;;;6285154;28;20111;-79
2022/08/06 02:45:08;;;;;;;;;;;21.20;62.10;;;;;;6286022;28;20120;-79
2022/08/06 02:48:19;;;;;;;1.92;0.60;;;21.20;62.30;;;;;;6284915;28;20291;-79
2022/08/06 02:51:26;;;;;;;2.47;0.60;;;21.20;62.60;;;;;;6290305;28;20411;-77
2022/08/06 02:54:35;;;;;;;1.45;0.60;;;21.10;63.00;;;;;;6280675;28;20055;-78
2022/08/06 02:57:40;;;;;;;1.30;0.60;;;21.00;63.60;;;;;;6280514;28;20051;-79
2022/08/06 03:00:46;;;;;;;3.20;0.60;;;20.80;64.30;;;;;;6280917;28;20044;-79
2022/08/06 03:03:51;;;;;;;3.45;0.52;;;20.80;64.50;;;;;;6280363;28;20045;-77
2022/08/06 03:06:54;;;;;;;1.85;0.60;;;20.80;64.90;;;;;;6281077;28;20051;-80
2022/08/06 03:09:58;;;;;;;3.05;0.70;;;20.80;65.10;;;;;;6280456;28;20041;-79
2022/08/06 03:13:01;;;;;;;1.23;0.70;;;20.80;65.50;;;;;;6279727;28;20401;-77
2022/08/06 03:16:06;;;;;;;1.48;0.50;;;20.80;65.60;;;;;;6279915;28;20416;-79
2022/08/06 03:19:10;;;;;;;2.83;0.70;;;20.70;66.10;;;;;;6280722;28;20580;-79
2022/08/06 03:22:13;;;;;;;1.00;0.40;;;20.60;66.60;;;;;;6280180;28;20044;-78
2022/08/06 03:25:17;;;;;;;1.30;0.57;;;20.60;66.90;;;;;;6280794;28;20499;-78
2022/08/06 03:28:20;;;;;;;3.42;0.73;;;20.60;67.20;;;;;;6279845;28;20045;-78
2022/08/06 03:31:24;;;;;;;2.35;1.33;;;20.60;67.40;;;;;;6279721;28;20063;-78
2022/08/06 03:34:27;;;;;;;1.83;0.88;;;20.60;67.60;;;;;;6278368;28;20064;-78
2022/08/06 03:37:30;;;;;;;2.13;0.68;;;20.80;67.60;;;;;;6277945;28;20500;-77
2022/08/06 03:40:34;;;;;;;3.88;1.38;;;20.80;67.70;;;;;;6279281;28;20052;-78
2022/08/06 03:43:36;;;;;;;1.90;0.77;;;20.80;67.90;;;;;;6279148;28;20049;-78
2022/08/06 03:46:44;;;;;;;1.15;0.77;;;20.80;68.20;;;;;;6278211;28;20060;-77
2022/08/06 03:49:51;;;;;;;2.08;0.93;;;20.80;68.40;;;;;;6277987;28;20049;-76
2022/08/06 03:52:59;;;;;;;3.08;1.40;;;20.90;68.70;;;;;;6278502;28;20041;-77
2022/08/06 03:56:04;;;;;;;4.65;0.88;;;20.90;68.80;;;;;;6277976;28;20048;-78
2022/08/06 03:59:07;;;;;;;2.92;0.75;;;20.90;68.80;;;;;;6278867;28;20079;-78
2022/08/06 04:02:13;;;;;;;5.20;1.00;;;20.90;68.90;;;;;;6278072;28;20056;-78
2022/08/06 04:05:18;;;;;;;6.30;1.10;;;20.80;69.10;;;;;;6278663;28;20041;-79
2022/08/06 04:08:20;;;;;;;3.70;1.20;;;20.70;69.10;;;;;;6278378;28;20643;-78
2022/08/06 04:11:22;;;;;;;1.42;0.68;;;20.80;69.80;;;;;;6278234;28;20134;-77
2022/08/06 04:14:25;;;;;;;1.70;0.60;;;20.80;69.00;;;;;;6277980;28;20065;-76
2022/08/06 04:17:29;;;;;;;3.63;0.85;;;20.80;68.90;;;;;;6276995;28;20404;-77
2022/08/06 04:20:33;;;;;;;3.92;0.57;;;20.70;68.80;;;;;;6278445;28;20053;-77
2022/08/06 04:23:37;;;;;;;3.28;1.17;;;20.70;69.00;;;;;;6278136;28;20051;-79
2022/08/06 04:26:40;;;;;;;1.00;0.65;;;20.60;69.00;;;;;;6279999;28;20056;-79
2022/08/06 04:29:44;;;;;;;3.15;0.82;;;20.50;69.10;;;;;;6277361;28;20053;-79
2022/08/06 04:32:47;;;;;;;4.60;1.15;;;20.40;69.50;;;;;;6279482;28;20037;-76
2022/08/06 04:35:50;;;;;;;2.40;1.00;;;20.30;69.90;;;;;;6284779;28;20045;-77
2022/08/06 04:38:52;;;;;;;2.75;0.82;;;20.40;69.90;;;;;;6282378;28;20053;-77
2022/08/06 04:41:55;;;;;;;2.38;0.68;;;20.40;69.50;;;;;;6282252;28;20504;-79
2022/08/06 04:44:57;;;;;;;1.45;0.60;;;20.30;69.50;;;;;;6279337;28;20059;-79
2022/08/06 04:48:01;;;;;;;2.88;0.82;;;20.30;69.60;;;;;;6278989;28;20041;-79
2022/08/06 04:51:03;;;;;;;1.90;0.90;;;20.30;69.80;;;;;;6278837;28;20052;-78
2022/08/06 04:54:05;;;;;;;4.50;0.80;;;20.40;69.60;;;;;;6278402;28;20158;-78
2022/08/06 04:57:07;;;;;;;2.65;1.00;;;20.50;69.40;;;;;;6278815;28;20051;-78
2022/08/06 05:00:10;;;;;;;4.28;0.95;;;20.60;68.90;;;;;;6279440;28;20048;-77
2022/08/06 05:03:14;;;;;;;3.25;0.95;;;20.70;68.40;;;;;;6279151;28;20049;-79
2022/08/06 05:06:21;;;;;;;3.03;0.98;;;20.70;68.20;;;;;;6278464;28;20049;-77
2022/08/06 05:09:25;;;;;;;5.35;0.82;;;20.70;67.80;;;;;;6278032;28;20045;-77
2022/08/06 05:12:32;;;;;;;3.72;0.90;;;20.60;67.70;;;;;;6277994;28;20041;-78
2022/08/06 05:15:39;;;;;;;2.63;0.93;;;20.50;67.50;;;;;;6278017;28;20055;-79
2022/08/06 05:18:46;;;;;;;9.07;0.70;;;20.50;67.40;;;;;;6277809;28;20048;-79
2022/08/06 05:21:49;;;;;;;3.78;0.90;;;20.50;66.80;;;;;;6276288;28;20045;-78
2022/08/06 05:24:51;;;;;;;1.48;0.60;;;20.20;66.80;;;;;;6278289;28;20063;-78
2022/08/06 05:27:53;;;;;;;1.50;0.55;;;20.30;67.00;;;;;;6277112;28;20515;-78
2022/08/06 05:30:55;;;;;;;1.77;0.43;;;20.40;66.60;;;;;;6277590;28;20052;-79
2022/08/06 05:33:58;;;;;;;2.83;0.50;;;20.50;66.20;;;;;;6275882;28;20045;-79
2022/08/06 05:37:00;;;;;;;1.83;0.73;;;20.70;65.50;;;;;;6275461;28;20049;-78
2022/08/06 05:40:02;;;;;;;2.22;0.98;;;20.90;65.00;;;;;;6275515;28;20061;-77
2022/08/06 05:43:04;;;;;;;3.80;0.88;;;21.00;64.50;;;;;;6276020;28;20041;-78
2022/08/06 05:46:10;;;;;;;4.63;0.70;;;21.50;63.80;;;;;;6274199;28;20041;-78
2022/08/06 05:49:18;;;;;;;2.45;0.45;;;22.60;60.90;;;;;;6275409;28;20055;-77
2022/08/06 05:52:25;;;;;;;2.50;0.90;;;22.80;59.50;;;;;;6274777;28;20051;-79
2022/08/06 05:55:35;;;;;;;2.10;0.90;;;23.30;58.70;;;;;;6275809;28;20492;-77
2022/08/06 05:58:43;;;;;;;2.83;0.77;;;23.60;57.70;;;;;;6277490;28;20119;-77
2022/08/06 06:01:47;;;;;;;4.82;0.70;;;24.10;56.30;;;;;;6279856;28;20052;-78
2022/08/06 06:04:50;;;;;;;2.70;0.60;;;24.80;54.00;;;;;;6279543;28;20049;-78
2022/08/06 06:07:55;;;;;;;5.43;1.25;;;25.20;52.40;;;;;;6279659;28;20049;-78
2022/08/06 06:10:58;;;;;;;1.17;0.70;;;25.50;51.30;;;;;;6280191;28;20053;-78
2022/08/06 06:14:00;;;;;;;1.52;0.60;;;25.60;50.50;;;;;;6280132;28;20045;-78
2022/08/06 06:17:12;;;;;;;1.73;0.55;;;25.60;50.40;;;;;;6280358;28;20049;-78
2022/08/06 06:20:19;;;;;;;3.33;1.30;;;26.10;50.20;;;;;;6280327;28;20064;-78
2022/08/06 06:23:29;;;;;;;2.13;0.88;;;27.20;48.00;;;;;;6281506;28;20072;-78
2022/08/06 06:26:40;;;;;;;5.10;1.13;;;28.30;46.70;;;;;;6280866;28;20041;-79
2022/08/06 06:29:53;;;;;;;1.65;0.52;;;29.40;44.50;;;;;;6281212;28;20051;-79
2022/08/06 06:33:02;;;;;;;1.17;0.50;;;30.30;42.50;;;;;;6279579;28;20045;-79
2022/08/06 06:36:17;;;;;;;3.90;0.88;;;31.30;41.30;;;;;;6280117;28;20424;-78
2022/08/06 06:39:26;;;;;;;4.18;0.60;;;32.30;39.80;;;;;;6281147;28;20049;-79
2022/08/06 06:42:35;;;;;;;3.30;0.60;;;33.20;38.20;;;;;;6279976;28;20047;-79
2022/08/06 06:45:53;;;;;;;2.35;0.80;;;34.00;37.00;;;;;;6280170;28;20045;-79
2022/08/06 06:49:01;;;;;;;1.00;0.35;;;34.50;36.20;;;;;;6279421;28;20405;-79
2022/08/06 06:52:09;;;;;;;3.90;0.65;;;34.90;35.90;;;;;;6279213;28;20048;-80
2022/08/06 06:55:14;;;;;;;5.97;0.50;;;35.10;35.20;;;;;;6278088;28;20041;-79
2022/08/06 06:58:24;;;;;;;2.05;0.55;;;34.90;35.30;;;;;;6277550;28;20051;-80
2022/08/06 07:01:27;;;;;;;3.50;0.57;;;35.70;34.80;;;;;;6278323;28;20047;-80
2022/08/06 07:04:30;;;;;;;2.92;1.27;;;36.00;34.00;;;;;;6279469;28;20466;-79
2022/08/06 07:07:36;;;;;;;3.33;0.63;;;35.80;33.50;;;;;;6279058;28;20049;-79
2022/08/06 07:10:40;;;;;;;3.55;0.73;;;35.10;34.30;;;;;;6277131;28;20045;-78
2022/08/06 07:13:44;;;;;;;2.03;0.60;;;34.70;34.70;;;;;;6277834;28;20041;-79
2022/08/06 07:16:49;;;;;;;1.15;0.38;;;34.40;35.10;;;;;;6280544;28;20045;-80
2022/08/06 07:19:53;;;;;;;6.47;0.63;;;34.10;35.50;;;;;;6227220;28;20067;-80
2022/08/06 07:23:00;;;;;;;0.98;0.60;;;34.60;35.10;;;;;;6277614;28;20045;-79
2022/08/06 07:26:02;;;;;;;1.23;0.70;;;34.50;34.90;;;;;;6281216;28;20049;-78
2022/08/06 07:29:05;;;;;;;2.70;0.93;;;33.90;35.90;;;;;;6282484;28;20047;-79
2022/08/06 07:32:10;;;;;;;1.95;0.60;;;33.40;36.00;;;;;;6288713;28;20053;-81
2022/08/06 07:35:12;;;;;;;2.03;0.73;;;31.70;38.40;;;;;;6290445;28;20044;-81
2022/08/06 07:38:18;;;;;;;2.25;0.60;;;30.00;40.60;;;;;;6285162;28;20041;-81
2022/08/06 07:41:21;;;;;;;2.95;0.82;;;28.60;42.50;;;;;;6284937;28;20128;-81
2022/08/06 07:44:26;;;;;;;1.13;0.40;;;27.50;44.00;;;;;;6285234;28;20041;-80
2022/08/06 07:47:33;;;;;;;2.50;0.90;;;26.50;45.70;;;;;;6288462;28;20052;-80
2022/08/06 07:50:36;;;;;;;1.88;0.52;;;25.80;47.00;;;;;;6287982;28;20538;-81
2022/08/06 07:53:40;;;;;;;4.97;0.77;;;25.50;48.00;;;;;;6294038;28;20059;-81
2022/08/06 07:56:44;;;;;;;1.52;0.52;;;25.50;48.40;;;;;;6284986;28;20131;-81
2022/08/06 07:59:50;;;;;;;5.20;0.57;;;25.20;49.00;;;;;;6278029;28;20135;-81
2022/08/06 08:26:58;;;;;;;4.53;0.68;;;25.10;48.50;;;;;;6267591;28;20037;-82
2022/08/06 08:30:11;;;;;;;4.85;0.50;;;25.30;48.70;;;;;;6251384;28;20049;-82
2022/08/06 08:33:29;;;;;;;3.63;0.70;;;25.50;47.50;;;;;;6261799;28;20051;-82
2022/08/06 08:37:08;;;;;;;2.08;0.60;;;25.60;46.90;;;;;;6273341;28;20059;-82
2022/08/06 08:56:02;;;;;;;1.98;0.43;;;26.00;41.50;;;;;;6269856;28;20056;-81
2022/08/06 09:06:46;;;;;;;2.33;0.30;;;25.90;41.50;;;;;;6275947;28;20052;-79
2022/08/06 09:09:52;;;;;;;0.75;0.30;;;26.10;41.40;;;;;;6278357;28;20044;-80
2022/08/06 09:12:54;;;;;;;0.80;0.30;;;26.30;41.30;;;;;;6277244;28;20199;-81
2022/08/06 09:15:57;;;;;;;0.90;0.25;;;26.70;40.40;;;;;;6277461;28;20504;-80
2022/08/06 09:18:59;;;;;;;1.33;0.25;;;27.00;39.30;;;;;;6276937;28;20049;-81
2022/08/06 09:22:01;;;;;;;2.10;0.20;;;27.40;39.30;;;;;;6276870;28;20055;-80
2022/08/06 09:25:05;;;;;;;0.50;0.20;;;27.80;37.80;;;;;;6276113;28;20045;-81
2022/08/06 09:28:11;;;;;;;1.45;0.68;;;28.00;37.70;;;;;;6276290;28;20040;-81
2022/08/06 09:31:14;;;;;;;3.92;0.40;;;28.00;38.10;;;;;;6277082;28;20424;-80
2022/08/06 09:34:16;;;;;;;2.05;0.65;;;28.10;37.70;;;;;;6276221;28;20044;-81
2022/08/06 09:37:28;;;;;;;3.40;0.20;;;28.20;37.90;;;;;;6276858;28;20063;-82
2022/08/06 09:40:32;;;;;;;0.75;0.28;;;28.60;37.70;;;;;;6275852;28;20087;-81
2022/08/06 09:43:34;;;;;;;2.65;0.47;;;28.60;37.10;;;;;;6276686;28;20051;-80
2022/08/06 09:46:37;;;;;;;3.35;0.30;;;28.40;37.60;;;;;;6277144;28;20088;-80
2022/08/06 09:49:45;;;;;;;2.40;0.32;;;28.70;38.20;;;;;;6278379;28;20068;-81
2022/08/06 09:53:01;;;;;;;0.28;0.20;;;29.00;36.70;;;;;;6276600;28;20073;-81
2022/08/06 09:56:17;;;;;;;0.90;0.20;;;28.70;37.20;;;;;;6255899;28;20041;-81
2022/08/06 09:59:18;;;;;;;1.85;0.43;;;29.00;37.30;;;;;;6254130;28;20059;-80
2022/08/06 10:02:21;;;;;;;1.75;0.60;;;29.40;36.30;;;;;;6271146;28;20055;-80
2022/08/06 10:05:25;;;;;;;3.33;0.38;;;29.50;35.20;;;;;;6276453;28;20051;-80
2022/08/06 10:08:28;;;;;;;0.22;0.20;;;29.80;35.60;;;;;;6275116;28;20041;-80
2022/08/06 10:11:36;;;;;;;6.00;0.43;;;30.20;35.50;;;;;;6276774;28;20128;-81
2022/08/06 10:14:38;;;;;;;0.88;0.28;;;30.30;35.00;;;;;;6275534;28;20154;-80
2022/08/06 10:17:46;;;;;;;8.15;0.40;;;30.20;35.20;;;;;;6274361;28;20041;-80
2022/08/06 10:21:00;;;;;;;2.08;0.30;;;29.50;35.30;;;;;;6276303;28;20051;-80
2022/08/06 10:24:04;;;;;;;3.88;0.40;;;29.20;35.90;;;;;;6269448;28;20044;-80
2022/08/06 10:27:09;;;;;;;2.17;0.30;;;29.00;36.30;;;;;;6276251;28;20051;-80
2022/08/06 10:30:12;;;;;;;1.00;0.30;;;29.30;36.60;;;;;;6275320;28;20420;-80
2022/08/06 10:33:19;;;;;;;1.73;0.30;;;29.50;35.90;;;;;;6275527;28;20534;-80
2022/08/06 10:36:23;;;;;;;;;;;29.70;35.00;;;;;;6275335;28;20099;-80
2022/08/06 10:39:29;;;;;;;4.75;0.50;;;29.60;35.00;;;;;;6274098;28;20280;-80
2022/08/06 10:42:33;;;;;;;1.25;0.20;;;30.00;34.60;;;;;;6273940;28;20139;-80
2022/08/06 10:45:36;;;;;;;3.13;0.30;;;30.00;34.40;;;;;;6275519;28;20071;-81
2022/08/06 10:48:40;;;;;;;0.60;0.15;;;30.20;34.20;;;;;;6277982;28;20048;-80
2022/08/06 10:51:43;;;;;;;3.22;0.30;;;30.60;33.80;;;;;;6276375;28;20404;-80
2022/08/06 10:54:46;;;;;;;2.10;0.40;;;30.20;33.70;;;;;;6278749;28;20049;-80
2022/08/06 10:57:50;;;;;;;1.88;0.57;;;30.00;34.40;;;;;;6277862;28;20132;-80
2022/08/06 11:00:54;;;;;;;4.07;0.45;;;30.30;34.30;;;;;;6278635;28;20064;-81
2022/08/06 11:04:12;;;;;;;0.30;0.20;;;30.50;33.30;;;;;;6262494;28;20052;-80
2022/08/06 11:07:38;;;;;;;1.70;0.30;;;31.00;33.40;;;;;;6278337;28;20045;-80
2022/08/06 11:11:06;;;;;;;1.00;0.30;;;31.50;32.40;;;;;;6285024;28;20120;-80
2022/08/06 11:14:11;;;;;;;1.52;0.40;;;31.20;32.20;;;;;;6289554;28;20075;-81
2022/08/06 11:17:14;;;;;;;0.77;0.20;;;31.10;32.70;;;;;;6282714;28;20134;-81
2022/08/06 11:20:36;;;;;;;2.65;0.10;;;31.30;32.70;;;;;;6280286;28;20048;-81
2022/08/06 11:23:38;;;;;;;0.93;0.45;;;31.90;31.50;;;;;;6277840;28;20079;-80
2022/08/06 11:26:42;;;;;;;1.98;0.22;;;31.60;31.80;;;;;;6279091;28;20104;-81
2022/08/06 11:30:10;;;;;;;1.45;0.20;;;31.40;31.80;;;;;;6277941;28;20049;-81
2022/08/06 11:33:14;;;;;;;2.30;0.30;;;31.90;31.90;;;;;;6278899;28;20048;-81
2022/08/06 11:36:26;;;;;;;1.38;0.10;;;32.50;31.40;;;;;;6278098;28;20128;-80
2022/08/06 11:39:28;;;;;;;2.53;0.25;;;33.10;30.70;;;;;;6276910;28;20512;-81
2022/08/06 11:42:44;;;;;;;0.82;0.30;;;33.40;30.10;;;;;;6277190;28;20049;-82
2022/08/06 11:46:29;;;;;;;0.60;0.28;;;33.70;30.00;;;;;;6276445;28;20129;-81
2022/08/06 11:49:41;;;;;;;0.30;0.13;;;34.10;29.70;;;;;;6241214;28;20048;-82
2022/08/06 11:52:43;;;;;;;1.38;0.30;;;34.20;29.50;;;;;;6277749;28;20500;-81
2022/08/06 11:56:05;;;;;;;3.50;0.30;;;34.40;29.20;;;;;;6276256;28;20059;-82
2022/08/06 11:59:14;;;;;;;1.95;0.40;;;34.80;29.10;;;;;;6276695;28;20045;-81
2022/08/06 12:02:37;;;;;;;1.55;0.45;;;34.80;28.80;;;;;;6275836;28;20048;-85
2022/08/06 12:05:42;;;;;;;2.28;0.10;;;34.20;29.40;;;;;;6275061;28;20416;-82
2022/08/06 12:09:08;;;;;;;10.10;0.50;;;33.80;29.30;;;;;;6276700;28;20163;-80
2022/08/06 12:12:33;;;;;;;0.47;0.25;;;33.80;29.10;;;;;;6275626;28;20041;-80
2022/08/06 12:15:38;;;;;;;0.75;0.17;;;33.80;29.10;;;;;;6277082;28;20073;-82
2022/08/06 12:18:39;;;;;;;0.98;0.30;;;33.90;29.20;;;;;;6277204;28;20053;-81
2022/08/06 12:21:44;;;;;;;0.82;0.25;;;34.10;29.40;;;;;;6275621;28;20048;-80
2022/08/06 12:24:47;;;;;;;2.50;0.82;;;34.30;29.20;;;;;;6275959;28;20045;-81
2022/08/06 12:27:49;;;;;;;0.93;0.20;;;34.40;29.00;;;;;;6276278;28;20053;-80
2022/08/06 12:30:53;;;;;;;1.08;0.52;;;34.70;28.60;;;;;;6276599;28;20419;-81
2022/08/06 12:33:55;;;;;;;0.77;0.20;;;34.80;28.40;;;;;;6274427;28;20056;-81
2022/08/06 12:36:58;;;;;;;0.90;0.25;;;34.90;28.50;;;;;;6274869;28;20068;-80
2022/08/06 12:43:20;;;;;;;0.50;0.17;;;33.60;29.40;;;;;;6276401;28;20443;-80
2022/08/06 12:46:25;;;;;;;2.63;0.40;;;33.90;29.00;;;;;;6275140;28;20136;-81
2022/08/06 12:49:30;;;;;;;0.57;0.25;;;34.20;28.70;;;;;;6275941;28;20052;-81
2022/08/06 12:52:34;;;;;;;1.08;0.20;;;34.70;28.40;;;;;;6275554;28;20045;-81
2022/08/06 12:55:38;;;;;;;0.65;0.20;;;35.00;28.10;;;;;;6257591;28;20443;-81
2022/08/06 12:58:41;;;;;;;0.85;0.20;;;35.10;28.10;;;;;;6275351;28;20048;-82
2022/08/06 13:01:45;;;;;;;6.65;0.57;;;35.20;27.90;;;;;;6275280;28;20048;-80
2022/08/06 13:04:51;;;;;;;0.98;0.20;;;35.20;28.00;;;;;;6274494;28;20527;-81
2022/08/06 13:07:55;;;;;;;1.20;0.20;;;35.50;28.10;;;;;;6273707;28;20447;-82
2022/08/06 13:10:58;;;;;;;0.38;0.20;;;35.80;28.20;;;;;;6274535;28;20049;-81
2022/08/06 13:14:07;;;;;;;2.00;0.20;;;35.80;27.70;;;;;;6275313;28;20051;-81
2022/08/06 13:17:13;;;;;;;2.75;0.38;;;36.00;27.80;;;;;;6275032;28;20416;-81
2022/08/06 13:20:15;;;;;;;4.00;0.20;;;36.00;27.50;;;;;;6275333;28;20041;-81
2022/08/06 13:23:30;;;;;;;1.35;0.20;;;35.90;27.60;;;;;;6274232;28;20053;-81
2022/08/06 13:26:34;;;;;;;3.40;0.30;;;35.90;27.60;;;;;;6277202;28;20451;-81
2022/08/06 13:29:36;;;;;;;2.35;0.38;;;36.00;27.50;;;;;;6274034;28;20053;-80
2022/08/06 13:32:40;;;;;;;2.63;0.47;;;36.00;27.40;;;;;;6275225;28;20053;-81
2022/08/06 13:35:42;;;;;;;0.50;0.10;;;36.10;27.40;;;;;;6275787;28;20041;-82
2022/08/06 13:38:48;;;;;;;2.72;0.28;;;36.10;27.10;;;;;;6273639;28;20051;-81
2022/08/06 13:42:12;;;;;;;2.67;0.28;;;35.80;28.00;;;;;;6273665;28;20528;-80
2022/08/06 13:45:21;;;;;;;2.25;0.20;;;35.90;27.40;;;;;;6274681;28;20385;-80
2022/08/06 13:51:39;;;;;;;1.85;0.20;;;36.20;27.20;;;;;;6273530;28;20063;-81
2022/08/06 13:54:43;;;;;;;0.73;0.30;;;36.20;27.20;;;;;;6274319;28;20051;-81
2022/08/06 13:57:44;;;;;;;1.58;0.17;;;36.30;26.90;;;;;;6275184;28;20198;-81
2022/08/06 14:00:46;;;;;;;1.05;0.20;;;36.50;26.80;;;;;;6275815;28;20045;-81
2022/08/06 14:03:48;;;;;;;1.08;0.10;;;36.30;27.10;;;;;;6275074;28;20075;-83
2022/08/06 14:06:51;;;;;;;0.50;0.10;;;36.20;26.90;;;;;;6273318;28;20055;-80
2022/08/06 14:09:54;;;;;;;2.00;0.52;;;35.90;27.00;;;;;;6275072;28;20051;-81
2022/08/06 14:16:18;;;;;;;1.77;0.22;;;35.90;27.00;;;;;;6272774;28;20385;-80
2022/08/06 14:19:20;;;;;;;0.52;0.20;;;36.10;27.00;;;;;;6277427;28;20056;-81
2022/08/06 14:22:22;;;;;;;3.60;0.20;;;36.10;27.20;;;;;;6279638;28;20127;-81
2022/08/06 14:25:26;;;;;;;3.08;0.40;;;36.20;27.60;;;;;;6280481;28;20051;-81
2022/08/06 14:28:29;;;;;;;0.80;0.35;;;36.20;26.70;;;;;;6280723;28;20512;-81
2022/08/06 14:31:32;;;;;;;0.52;0.15;;;36.00;27.00;;;;;;6292129;28;20045;-81
2022/08/06 14:34:35;;;;;;;2.50;0.30;;;36.00;26.90;;;;;;6283305;28;20053;-80
2022/08/06 14:37:37;;;;;;;1.15;0.20;;;35.70;27.00;;;;;;6296043;28;20055;-81
2022/08/06 14:47:18;;;;;;;0.17;0.13;;;35.10;27.20;;;;;;6268796;28;20041;-81
2022/08/06 14:50:20;;;;;;;3.85;0.10;;;35.00;27.40;;;;;;6270635;28;20056;-82
2022/08/06 14:53:22;;;;;;;0.60;0.28;;;35.20;27.40;;;;;;6281254;28;20131;-81
2022/08/06 14:56:25;;;;;;;1.35;0.30;;;35.40;27.40;;;;;;6280609;28;20056;-81
2022/08/06 14:59:27;;;;;;;0.73;0.10;;;35.40;27.00;;;;;;6279551;28;20049;-81
2022/08/06 15:02:29;;;;;;;2.45;0.20;;;35.50;27.00;;;;;;6278628;28;20057;-82
2022/08/06 15:05:34;;;;;;;2.33;0.25;;;35.60;27.00;;;;;;6280964;28;20076;-81
2022/08/06 15:08:37;;;;;;;2.65;0.28;;;35.50;26.80;;;;;;6255901;28;20056;-81
2022/08/06 15:11:44;;;;;;;2.13;0.28;;;34.80;27.10;;;;;;6261581;28;20037;-81
2022/08/06 15:14:49;;;;;;;0.60;0.25;;;34.70;27.30;;;;;;6280409;28;20619;-80
2022/08/06 15:17:51;;;;;;;0.47;0.10;;;34.50;27.10;;;;;;6281248;28;20051;-81
2022/08/06 15:20:53;;;;;;;3.30;0.30;;;34.10;27.40;;;;;;6295420;28;20094;-81
2022/08/06 15:23:55;;;;;;;2.75;0.95;;;33.90;27.50;;;;;;6273423;28;20179;-80
2022/08/06 15:27:20;;;;;;;1.00;0.35;;;33.70;27.60;;;;;;6269537;28;20056;-81
2022/08/06 15:30:22;;;;;;;1.33;0.20;;;33.50;27.80;;;;;;6251943;28;20493;-82
2022/08/06 15:33:26;;;;;;;0.20;0.10;;;33.60;27.90;;;;;;6251296;28;20574;-80
2022/08/06 15:36:28;;;;;;;1.98;0.43;;;33.70;27.50;;;;;;6252672;28;20046;-80
2022/08/06 15:39:32;;;;;;;0.40;0.13;;;33.70;27.50;;;;;;6252168;28;20049;-80
2022/08/06 15:42:35;;;;;;;0.63;0.10;;;33.60;27.60;;;;;;6252830;28;20112;-80
2022/08/06 15:45:36;;;;;;;2.05;0.10;;;33.70;27.50;;;;;;6252067;28;20048;-81
2022/08/06 15:48:46;;;;;;;2.00;0.30;;;33.80;27.30;;;;;;6252205;28;20629;-81
2022/08/06 15:52:02;;;;;;;0.35;0.20;;;33.80;27.50;;;;;;6253502;28;20041;-80
2022/08/06 15:55:12;;;;;;;0.20;0.10;;;33.80;27.70;;;;;;6255241;28;20049;-81
2022/08/06 15:58:22;;;;;;;1.38;0.20;;;33.90;27.40;;;;;;6253146;28;20053;-81
2022/08/06 16:12:35;;;;;;;1.27;0.13;;;33.30;27.50;;;;;;6223483;28;20073;-80
2022/08/06 16:23:31;;;;;;;2.22;0.35;;;32.90;27.90;;;;;;6264970;28;20118;-80
2022/08/06 16:26:35;;;;;;;1.95;0.20;;;32.80;27.80;;;;;;6251564;28;20045;-80
2022/08/06 16:29:37;;;;;;;1.75;0.40;;;32.70;28.00;;;;;;6250934;28;20065;-79
2022/08/06 16:32:39;;;;;;;1.08;0.40;;;32.70;28.20;;;;;;6250968;28;20045;-79
2022/08/06 16:35:41;;;;;;;1.75;0.10;;;32.50;28.30;;;;;;6251200;28;20049;-80
2022/08/06 16:38:44;;;;;;;3.15;0.38;;;32.30;28.30;;;;;;6250869;28;20049;-79
2022/08/06 16:41:46;;;;;;;2.33;0.52;;;32.00;28.60;;;;;;6251730;28;20049;-79
2022/08/06 16:44:48;;;;;;;2.65;0.20;;;31.80;29.10;;;;;;6251490;28;20045;-80
2022/08/06 16:47:50;;;;;;;6.25;0.30;;;31.60;29.30;;;;;;6251669;28;20524;-79
2022/08/06 16:50:52;;;;;;;4.78;0.25;;;31.20;29.80;;;;;;6252845;28;20119;-79
2022/08/06 16:53:55;;;;;;;1.00;0.10;;;30.90;29.80;;;;;;6275504;28;20051;-80
2022/08/06 16:56:57;;;;;;;0.38;0.13;;;30.50;30.10;;;;;;6276038;28;20067;-80
2022/08/06 16:59:58;;;;;;;0.80;0.20;;;30.20;30.20;;;;;;6277499;28;20045;-80
2022/08/06 17:03:00;;;;;;;1.58;0.10;;;29.80;30.80;;;;;;6278320;28;20052;-79
2022/08/06 17:06:02;;;;;;;1.35;0.20;;;29.40;30.90;;;;;;6278222;28;20104;-80
2022/08/06 17:09:06;;;;;;;1.27;0.38;;;29.20;32.20;;;;;;6275395;28;20045;-80
2022/08/06 17:12:08;;;;;;;2.17;0.32;;;29.00;31.40;;;;;;6277922;28;20041;-78
2022/08/06 17:15:10;;;;;;;2.35;0.20;;;28.90;32.00;;;;;;6278687;28;20127;-80
2022/08/06 17:18:12;;;;;;;3.20;0.30;;;28.70;32.10;;;;;;6278015;28;20056;-80
2022/08/06 17:21:14;;;;;;;0.93;0.28;;;28.50;32.00;;;;;;6277968;28;20500;-79
2022/08/06 17:24:18;;;;;;;3.85;0.40;;;28.30;32.20;;;;;;6277631;28;20071;-80
2022/08/06 17:27:20;;;;;;;3.28;0.50;;;28.10;32.70;;;;;;6278468;28;20045;-80
2022/08/06 17:30:23;;;;;;;1.15;0.20;;;27.90;33.50;;;;;;6282026;28;20044;-79